Ronald, WA (98940)

10:40 PM PDT on September 23, 2014 (GMT -0700)
Pineloch Sun 2 | Change Station
CLOSE
Current Station
Personal Weather Station
Location: Ronald, WA
Elevation: 2612 ft
Nearby Weather Stations

Elev 2612 ft 47.25 °N, 121.05 °W | Updated 8 seconds ago

Overcast
Overcast
58.1 °F
Feels Like 58.1 °F
N
1.0
Wind Variable Wind from South
Gusts 1.0 mph

Today
High -- | Low -- °F
--% Chance of Precip.
Yesterday
High -- | Low -- °F
Precip. -- in
6:52 AM 6:59 PM
Waning Crescent, 0% visible
Pressure 29.80 in
Visibility 8.0 miles
Clouds Overcast 11000 ft
Dew Point 54 °F
Humidity 85%
Rainfall 0.00 in
Snow Depth 0 in , 0 in , 1 in
UV 0 out of 12
Pollen 1.20 out of 12
Air Quality Not available.
Flu Activity Not available.
METAR KELN 240453Z AUTO 00000KT 8SM OVC110 16/14 A2982 RMK AO2 RAE10 SLP091 P0000 T01610139

More Conditions Fewer Conditions

Pressure 29.80 in
Visibility 8.0 miles
Clouds Overcast 11000 ft
Dew Point 54 °F
Humidity 85%
Rainfall 0.00 in
Snow Depth 0 in , 0 in , 1 in
UV 0 out of 12
Pollen 1.20 out of 12
Air Quality Not available.
Flu Activity Not available.
METAR KELN 240453Z AUTO 00000KT 8SM OVC110 16/14 A2982 RMK AO2 RAE10 SLP091 P0000 T01610139

More Conditions Fewer Conditions

10-Day Weather Forecast

Almanac

Astronomy

Sep. 23, 2014 Rise Set
Actual Time 6:52 AM PDT 6:59 PM PDT
Civil Twilight 6:21 AM PDT 7:30 PM PDT
Nautical Twilight 5:45 AM PDT 8:05 PM PDT
Astronomical Twilight 5:08 AM PDT 8:42 PM PDT
Moon 6:21 AM PDT (9/23) 6:39 PM PDT (9/23)
Length of Visible Light 13h 08m
Length of Day
12h 07m
Tomorrow will be 3m 22s shorter.
Waning Crescent, 0% of the Moon is Illuminated
Sep 24
Waning Crescent
Sep 24
New
Oct 1
First Quarter
Oct 8
Full
Oct 15
Last Quarter

Yesterday's Extremes

State Highs State Lows

Community

WunderPhotos

Upload Photos

1,755,891 photos uploaded!

WunderBlogs® & News

Nearby

Snow Depth

Station Depth Elevation
Lone Pine 0 in 3800 ft
Mount Gardner 0 in 3000 ft
Quartz Peak 1 in 4700 ft
Pigtail Peak 0 in 5900 ft
Spencer Meadow 0 in 3400 ft

Earthquake Activity

City Distance Mag. Time & Date
No recent earthquake activity has been reported nearby.
Minimum magnitude displayed is 2.5.

Coastal Water Temperatures

Place Temperature
No Stations Reporting

Nearby Weather Stations